createdAt,value
2023-02-23T00:00:21.622Z,0.03
2023-02-23T00:03:28.188Z,-1.57
2023-02-23T00:06:37.361Z,0.09
2023-02-23T00:09:47.478Z,0.05
2023-02-23T00:12:52.876Z,0.10
2023-02-23T00:15:59.123Z,0.06
2023-02-23T00:19:08.311Z,0.05
2023-02-23T00:22:15.092Z,-0.03
2023-02-23T00:25:24.176Z,0.00
2023-02-23T00:28:30.596Z,0.00
2023-02-23T00:31:38.890Z,-0.06
2023-02-23T00:34:45.381Z,-0.14
2023-02-23T00:37:52.720Z,-0.18
2023-02-23T00:41:01.757Z,-0.21
2023-02-23T00:44:07.536Z,-0.24
2023-02-23T00:47:13.772Z,-0.26
2023-02-23T00:50:21.911Z,-0.26
2023-02-23T00:53:28.388Z,-0.30
2023-02-23T00:56:37.454Z,-0.31
2023-02-23T00:59:43.853Z,-0.31
2023-02-23T01:02:50.698Z,-0.32
2023-02-23T01:05:56.975Z,-0.34
2023-02-23T01:09:05.588Z,-0.33
2023-02-23T01:12:14.775Z,-0.34
2023-02-23T01:15:24.247Z,-0.35
2023-02-23T01:18:30.734Z,-0.36
2023-02-23T01:21:42.287Z,-0.37
2023-02-23T01:24:48.631Z,-0.38
2023-02-23T01:27:56.787Z,-0.41
2023-02-23T01:31:03.160Z,-0.45
2023-02-23T01:34:12.079Z,-0.47
2023-02-23T01:37:18.389Z,-0.51
2023-02-23T01:40:31.648Z,-0.52
2023-02-23T01:44:04.155Z,-0.52
2023-02-23T01:47:09.608Z,-0.56
2023-02-23T01:50:16.477Z,-0.57
2023-02-23T01:53:27.027Z,-0.58
2023-02-23T01:56:43.594Z,-0.59
2023-02-23T01:59:54.254Z,-0.65
2023-02-23T02:03:12.362Z,-0.69
2023-02-23T02:06:24.681Z,-0.78
2023-02-23T02:09:37.966Z,-0.78
2023-02-23T02:12:48.037Z,-0.82
2023-02-23T02:16:38.829Z,-0.87
2023-02-23T02:20:33.167Z,-0.92
2023-02-23T02:24:52.594Z,-0.95
2023-02-23T02:28:40.636Z,-0.94
2023-02-23T02:32:43.006Z,-0.94
2023-02-23T02:37:00.773Z,-0.97
2023-02-23T02:40:25.270Z,-1.00
2023-02-23T02:43:51.530Z,-1.01
2023-02-23T02:47:09.665Z,-1.01
2023-02-23T02:50:31.611Z,-0.99
2023-02-23T02:53:58.272Z,-0.98
2023-02-23T02:57:07.673Z,-0.98
2023-02-23T03:00:40.909Z,-0.98
2023-02-23T03:04:06.157Z,-0.98
2023-02-23T03:07:44.851Z,-1.04
2023-02-23T03:11:21.125Z,-0.97
2023-02-23T03:14:53.942Z,-0.99
2023-02-23T03:18:32.765Z,-1.00
2023-02-23T03:22:08.086Z,-1.01
2023-02-23T03:25:45.167Z,-1.03
2023-02-23T03:29:27.797Z,-1.03
2023-02-23T03:33:02.210Z,-1.02
2023-02-23T03:36:34.425Z,-1.05
2023-02-23T03:40:09.974Z,-1.07
2023-02-23T03:43:43.255Z,-1.06
2023-02-23T03:47:10.365Z,-1.36
2023-02-23T03:50:45.553Z,-1.17
2023-02-23T03:54:17.803Z,-1.11
2023-02-23T03:57:46.958Z,-1.12
2023-02-23T04:01:13.781Z,-1.14
2023-02-23T04:04:43.812Z,-1.16
2023-02-23T04:08:10.609Z,-1.17
2023-02-23T04:11:45.099Z,-1.23
2023-02-23T04:14:58.062Z,-1.18
2023-02-23T04:18:06.985Z,-1.19
2023-02-23T04:21:15.372Z,-1.22
2023-02-23T04:24:22.029Z,-1.22
2023-02-23T04:27:28.070Z,-1.24
2023-02-23T04:30:34.378Z,-1.25
2023-02-23T04:33:39.811Z,-1.23
2023-02-23T04:36:51.415Z,-1.36
2023-02-23T04:39:56.941Z,-1.27
2023-02-23T04:43:03.308Z,-1.25
2023-02-23T04:46:09.253Z,-1.24
2023-02-23T04:49:15.514Z,-1.25
2023-02-23T04:52:23.717Z,-1.25
2023-02-23T04:55:30.405Z,-1.24
2023-02-23T04:58:35.845Z,-1.23
2023-02-23T05:01:42.718Z,-1.21
2023-02-23T05:04:48.200Z,-1.22
2023-02-23T05:07:57.640Z,-1.22
2023-02-23T05:11:03.048Z,-1.22
2023-02-23T05:14:10.085Z,-1.21
2023-02-23T05:17:15.590Z,-1.20
2023-02-23T05:20:22.393Z,-1.22
2023-02-23T05:23:30.765Z,-1.20
2023-02-23T05:26:37.294Z,-1.19
2023-02-23T05:29:42.784Z,-1.19
2023-02-23T05:32:49.553Z,-1.26
2023-02-23T05:35:54.901Z,-1.17
2023-02-23T05:39:03.920Z,-1.15
2023-02-23T05:42:10.442Z,-1.19
2023-02-23T05:45:18.217Z,-1.10
2023-02-23T05:48:26.687Z,-1.09
2023-02-23T05:51:36.361Z,-1.05
2023-02-23T05:54:44.508Z,-1.01
2023-02-23T05:57:50.871Z,-1.04
2023-02-23T06:00:56.261Z,-0.94
2023-02-23T06:04:04.546Z,-0.94
2023-02-23T06:07:10.881Z,-1.31
2023-02-23T06:10:21.151Z,-0.84
2023-02-23T06:13:26.538Z,-0.80
2023-02-23T06:16:32.886Z,-2.00
2023-02-23T06:19:38.276Z,-0.70
2023-02-23T06:22:44.970Z,-0.65
2023-02-23T06:25:53.198Z,-0.61
2023-02-23T06:28:59.483Z,-0.66
2023-02-23T06:32:04.915Z,-0.52
2023-02-23T06:35:12.574Z,-0.50
2023-02-23T06:38:18.254Z,-0.43
2023-02-23T06:41:28.425Z,-0.39
2023-02-23T06:44:35.795Z,-0.34
2023-02-23T06:47:42.286Z,-0.31
2023-02-23T06:50:47.686Z,-0.26
2023-02-23T06:53:54.067Z,-0.22
2023-02-23T06:57:02.209Z,-0.15
2023-02-23T07:00:10.536Z,-0.23
2023-02-23T07:03:16.005Z,0.00
2023-02-23T07:06:22.938Z,-0.03
2023-02-23T07:09:30.653Z,0.07
2023-02-23T07:12:39.731Z,0.09
2023-02-23T07:15:45.821Z,0.14
2023-02-23T07:18:52.028Z,0.21
2023-02-23T07:21:57.468Z,0.36
2023-02-23T07:25:04.683Z,0.37
2023-02-23T07:28:14.349Z,0.40
2023-02-23T07:31:21.240Z,0.48
2023-02-23T07:34:27.098Z,0.58
2023-02-23T07:37:33.479Z,0.71
2023-02-23T07:40:39.155Z,0.81
2023-02-23T07:43:48.386Z,0.93
2023-02-23T07:46:53.780Z,1.02
2023-02-23T07:50:03.660Z,1.13
2023-02-23T07:53:09.844Z,1.21
2023-02-23T07:56:16.955Z,1.29
2023-02-23T07:59:25.231Z,1.35
2023-02-23T08:02:33.004Z,1.42
2023-02-23T08:05:40.526Z,1.39
2023-02-23T08:08:47.440Z,1.49
2023-02-23T08:11:52.859Z,1.53
2023-02-23T08:15:01.872Z,1.64
2023-02-23T08:18:08.062Z,1.78
2023-02-23T08:21:14.309Z,1.88
2023-02-23T08:24:20.089Z,2.03
2023-02-23T08:27:27.229Z,2.16
2023-02-23T08:30:36.240Z,2.22
2023-02-23T08:33:43.202Z,2.41
2023-02-23T08:36:48.587Z,2.48
2023-02-23T08:39:55.149Z,2.51
2023-02-23T08:43:00.578Z,2.55
2023-02-23T08:46:10.477Z,2.62
2023-02-23T08:49:15.958Z,2.61
2023-02-23T08:52:22.294Z,2.70
2023-02-23T08:55:27.794Z,2.84
2023-02-23T08:58:34.756Z,2.93
2023-02-23T09:01:43.310Z,2.97
2023-02-23T09:04:50.627Z,3.09
2023-02-23T09:07:56.242Z,3.15
2023-02-23T09:11:02.591Z,3.20
2023-02-23T09:14:08.806Z,3.29
2023-02-23T09:17:18.171Z,3.39
2023-02-23T09:20:27.129Z,3.49
2023-02-23T09:23:33.622Z,3.57
2023-02-23T09:26:40.382Z,3.12
2023-02-23T09:29:46.717Z,3.67
2023-02-23T09:32:57.813Z,3.71
2023-02-23T09:36:08.079Z,3.30
2023-02-23T09:39:13.669Z,3.75
2023-02-23T09:42:43.366Z,3.82
2023-02-23T09:46:01.005Z,3.90
2023-02-23T09:49:20.935Z,3.98
2023-02-23T09:52:37.186Z,4.05
2023-02-23T09:55:48.298Z,4.13
2023-02-23T09:58:54.606Z,4.36
2023-02-23T10:02:19.501Z,4.51
2023-02-23T10:05:35.250Z,4.67
2023-02-23T10:09:02.099Z,4.83
2023-02-23T10:12:20.984Z,5.06
2023-02-23T10:15:41.154Z,5.00
2023-02-23T10:19:04.215Z,5.48
2023-02-23T10:22:18.819Z,5.67
2023-02-23T10:25:30.309Z,5.81
2023-02-23T10:28:40.442Z,5.91
2023-02-23T10:31:55.144Z,5.92
2023-02-23T10:35:02.909Z,6.10
2023-02-23T10:38:20.078Z,6.08
2023-02-23T10:41:27.693Z,6.20
2023-02-23T10:44:33.829Z,5.82
2023-02-23T10:47:41.144Z,6.37
2023-02-23T10:50:49.279Z,6.41
2023-02-23T10:54:05.005Z,6.47
2023-02-23T10:57:23.425Z,6.28
2023-02-23T11:00:33.844Z,6.60
2023-02-23T11:03:50.002Z,6.69
2023-02-23T11:07:13.066Z,6.77
2023-02-23T11:10:32.398Z,6.92
2023-02-23T11:13:46.389Z,7.03
2023-02-23T11:16:51.813Z,7.07
2023-02-23T11:20:05.510Z,7.14
2023-02-23T11:23:15.335Z,7.18
2023-02-23T11:26:35.744Z,7.17
2023-02-23T11:29:48.403Z,7.28
2023-02-23T11:32:59.519Z,7.36
2023-02-23T11:36:28.582Z,7.44
2023-02-23T11:39:38.773Z,7.52
2023-02-23T11:42:56.864Z,7.57
2023-02-23T11:46:06.476Z,7.73
2023-02-23T11:49:24.749Z,6.74
2023-02-23T11:52:32.249Z,8.07
2023-02-23T11:55:41.027Z,8.16
2023-02-23T11:58:54.559Z,8.24
2023-02-23T12:02:23.231Z,8.34
2023-02-23T12:05:33.965Z,8.37
2023-02-23T12:08:49.053Z,8.52
2023-02-23T12:12:07.427Z,8.61
2023-02-23T12:15:31.521Z,8.70
2023-02-23T12:18:56.008Z,8.76
2023-02-23T12:22:10.121Z,8.81
2023-02-23T12:25:30.819Z,8.88
2023-02-23T12:28:46.196Z,8.90
2023-02-23T12:32:05.924Z,8.93
2023-02-23T12:35:22.982Z,8.95
2023-02-23T12:38:48.978Z,9.01
2023-02-23T12:42:11.077Z,9.11
2023-02-23T12:45:30.220Z,9.15
2023-02-23T12:48:55.293Z,9.14
2023-02-23T12:52:14.931Z,9.21
2023-02-23T12:55:42.145Z,9.24
2023-02-23T12:59:05.397Z,9.34
2023-02-23T13:02:25.853Z,9.40
2023-02-23T13:05:42.691Z,9.42
2023-02-23T13:09:09.042Z,9.33
2023-02-23T13:12:40.634Z,9.39
2023-02-23T13:16:02.937Z,9.42
2023-02-23T13:19:25.090Z,9.46
2023-02-23T13:22:49.195Z,9.44
2023-02-23T13:26:11.958Z,9.49
2023-02-23T13:29:37.806Z,9.49
2023-02-23T13:32:45.471Z,9.46
2023-02-23T13:35:51.510Z,9.39
2023-02-23T13:39:39.307Z,9.34
2023-02-23T13:43:07.822Z,9.33
2023-02-23T13:46:31.726Z,9.28
2023-02-23T13:49:54.522Z,9.30
2023-02-23T13:53:08.956Z,9.34
2023-02-23T13:56:22.899Z,9.37
2023-02-23T13:59:34.128Z,9.40
2023-02-23T14:02:43.886Z,9.45
2023-02-23T14:05:56.847Z,9.48
2023-02-23T14:09:14.128Z,9.53
2023-02-23T14:12:35.522Z,9.52
2023-02-23T14:15:50.115Z,9.53
2023-02-23T14:19:28.619Z,9.54
2023-02-23T14:22:36.704Z,9.54
2023-02-23T14:25:57.319Z,9.51
2023-02-23T14:29:32.282Z,9.53
2023-02-23T14:32:43.739Z,9.52
2023-02-23T14:35:52.647Z,9.50
2023-02-23T14:39:10.181Z,9.50
2023-02-23T14:42:27.523Z,9.46
2023-02-23T14:45:44.834Z,9.39
2023-02-23T14:49:04.349Z,9.26
2023-02-23T14:52:18.993Z,9.26
2023-02-23T14:55:30.200Z,9.17
2023-02-23T14:58:37.824Z,9.10
2023-02-23T15:01:47.119Z,9.03
2023-02-23T15:04:55.402Z,8.95
2023-02-23T15:08:04.602Z,8.89
2023-02-23T15:11:18.000Z,8.83
2023-02-23T15:14:28.198Z,8.79
2023-02-23T15:17:38.073Z,8.74
2023-02-23T15:20:46.095Z,8.74
2023-02-23T15:23:56.124Z,8.68
2023-02-23T15:27:03.253Z,8.63
2023-02-23T15:30:30.824Z,8.62
2023-02-23T15:33:39.627Z,8.59
2023-02-23T15:36:49.546Z,8.54
2023-02-23T15:40:01.841Z,8.47
2023-02-23T15:43:09.264Z,8.40
2023-02-23T15:46:32.866Z,7.82
2023-02-23T15:49:44.206Z,7.69
2023-02-23T15:52:57.018Z,7.76
2023-02-23T15:56:14.535Z,7.80
2023-02-23T15:59:29.980Z,7.78
2023-02-23T16:02:39.552Z,7.76
2023-02-23T16:06:01.864Z,7.62
2023-02-23T16:09:24.317Z,7.56
2023-02-23T16:12:35.908Z,7.55
2023-02-23T16:15:44.673Z,7.47
2023-02-23T16:19:01.571Z,7.52
2023-02-23T16:22:26.324Z,7.49
2023-02-23T16:25:35.744Z,7.47
2023-02-23T16:28:48.180Z,7.41
2023-02-23T16:32:05.752Z,7.38
2023-02-23T16:35:22.632Z,7.35
2023-02-23T16:38:57.107Z,7.32
2023-02-23T16:42:07.291Z,7.27
2023-02-23T16:45:20.257Z,7.24
2023-02-23T16:48:28.955Z,7.21
2023-02-23T16:51:37.724Z,7.20
2023-02-23T16:54:48.749Z,7.18
2023-02-23T16:57:57.962Z,7.15
2023-02-23T17:01:04.271Z,7.13
2023-02-23T17:04:16.462Z,7.12
2023-02-23T17:07:24.268Z,7.17
2023-02-23T17:10:38.170Z,7.14
2023-02-23T17:13:44.814Z,7.20
2023-02-23T17:16:51.580Z,7.18
2023-02-23T17:19:57.933Z,7.17
2023-02-23T17:23:06.702Z,7.17
2023-02-23T17:26:17.351Z,7.17
2023-02-23T17:29:22.897Z,7.20
2023-02-23T17:32:30.061Z,7.21
2023-02-23T17:35:37.799Z,7.20
2023-02-23T17:38:45.041Z,7.23
2023-02-23T17:41:53.233Z,7.21
2023-02-23T17:44:59.744Z,7.22
2023-02-23T17:48:05.460Z,7.22
2023-02-23T17:51:16.334Z,7.22
2023-02-23T17:54:21.835Z,7.26
2023-02-23T17:57:33.119Z,7.26
2023-02-23T18:00:39.064Z,7.25
2023-02-23T18:03:45.544Z,7.21
2023-02-23T18:06:51.499Z,7.17
2023-02-23T18:09:58.038Z,7.12
2023-02-23T18:13:07.744Z,7.06
2023-02-23T18:16:15.000Z,7.07
2023-02-23T18:19:20.491Z,6.99
2023-02-23T18:22:26.751Z,7.05
2023-02-23T18:25:33.143Z,7.05
2023-02-23T18:28:44.771Z,7.02
2023-02-23T18:31:52.641Z,7.03
2023-02-23T18:34:59.342Z,7.03
2023-02-23T18:38:05.354Z,7.04
2023-02-23T18:41:11.787Z,7.01
2023-02-23T18:44:22.171Z,6.84
2023-02-23T18:47:30.076Z,7.06
2023-02-23T18:50:36.967Z,7.07
2023-02-23T18:53:44.882Z,7.09
2023-02-23T18:56:52.618Z,7.07
2023-02-23T19:00:01.748Z,7.08
2023-02-23T19:03:07.481Z,7.09
2023-02-23T19:06:16.177Z,7.10
2023-02-23T19:09:21.679Z,7.14
2023-02-23T19:12:29.545Z,7.17
2023-02-23T19:15:38.098Z,5.82
2023-02-23T19:18:44.397Z,6.60
2023-02-23T19:21:50.316Z,7.14
2023-02-23T19:24:57.301Z,7.13
2023-02-23T19:28:03.047Z,6.86
2023-02-23T19:31:16.079Z,7.11
2023-02-23T19:34:21.780Z,7.19
2023-02-23T19:37:28.434Z,7.22
2023-02-23T19:40:36.954Z,7.25
2023-02-23T19:43:44.054Z,7.19
2023-02-23T19:46:52.349Z,7.18
2023-02-23T19:49:58.722Z,7.16
2023-02-23T19:53:04.547Z,7.15
2023-02-23T19:56:15.206Z,7.09
2023-02-23T19:59:21.459Z,7.06
2023-02-23T20:02:30.927Z,6.94
2023-02-23T20:05:44.519Z,6.97
2023-02-23T20:08:52.842Z,6.97
2023-02-23T20:11:59.525Z,6.94
2023-02-23T20:15:07.666Z,6.94
2023-02-23T20:18:17.679Z,6.98
2023-02-23T20:21:26.273Z,6.98
2023-02-23T20:24:32.194Z,7.02
2023-02-23T20:27:40.071Z,7.08
2023-02-23T20:30:50.099Z,7.01
2023-02-23T20:34:04.027Z,7.14
2023-02-23T20:37:09.682Z,7.13
2023-02-23T20:40:22.949Z,5.49
2023-02-23T20:43:28.614Z,7.04
2023-02-23T20:46:35.011Z,7.02
2023-02-23T20:49:43.685Z,7.01
2023-02-23T20:52:53.420Z,6.99
2023-02-23T20:55:59.189Z,6.98
2023-02-23T20:59:11.374Z,6.95
2023-02-23T21:02:17.043Z,6.92
2023-02-23T21:05:27.757Z,6.97
2023-02-23T21:08:40.136Z,6.99
2023-02-23T21:11:48.380Z,6.96
2023-02-23T21:14:54.111Z,6.93
2023-02-23T21:18:04.885Z,6.94
2023-02-23T21:21:20.301Z,6.96
2023-02-23T21:24:29.087Z,6.96
2023-02-23T21:27:34.887Z,6.93
2023-02-23T21:30:41.318Z,6.97
2023-02-23T21:33:52.351Z,6.98
2023-02-23T21:37:02.814Z,6.96
2023-02-23T21:40:12.341Z,6.94
2023-02-23T21:43:19.151Z,6.88
2023-02-23T21:46:25.968Z,6.55
2023-02-23T21:49:32.317Z,6.80
2023-02-23T21:52:43.504Z,6.86
2023-02-23T21:55:49.866Z,6.86
2023-02-23T21:58:59.001Z,6.86
2023-02-23T22:02:05.278Z,6.85
2023-02-23T22:05:12.403Z,6.82
2023-02-23T22:08:21.494Z,6.77
2023-02-23T22:11:29.913Z,6.70
2023-02-23T22:14:36.426Z,6.66
2023-02-23T22:17:41.965Z,6.62
2023-02-23T22:20:53.181Z,6.58
2023-02-23T22:24:01.868Z,6.55
2023-02-23T22:27:10.583Z,6.53
2023-02-23T22:30:20.778Z,6.53
2023-02-23T22:33:27.405Z,6.53
2023-02-23T22:36:33.917Z,6.52
2023-02-23T22:39:43.436Z,6.46
2023-02-23T22:42:54.800Z,5.29
2023-02-23T22:46:01.648Z,6.44
2023-02-23T22:49:07.463Z,6.26
2023-02-23T22:52:13.806Z,6.24
2023-02-23T22:55:22.409Z,6.16
2023-02-23T22:58:31.684Z,6.16
2023-02-23T23:01:39.465Z,6.11
2023-02-23T23:04:47.655Z,6.07
2023-02-23T23:07:53.398Z,6.02
2023-02-23T23:11:09.891Z,6.01
2023-02-23T23:14:19.409Z,6.02
2023-02-23T23:17:25.758Z,6.05
2023-02-23T23:20:31.366Z,6.02
2023-02-23T23:23:37.664Z,5.94
2023-02-23T23:26:46.351Z,5.91
2023-02-23T23:29:52.816Z,5.90
2023-02-23T23:33:00.540Z,5.85
2023-02-23T23:36:10.492Z,5.63
2023-02-23T23:39:17.190Z,5.74
2023-02-23T23:42:26.692Z,5.79
2023-02-23T23:45:37.838Z,5.74
2023-02-23T23:48:44.435Z,5.81
2023-02-23T23:51:56.639Z,5.83
2023-02-23T23:55:04.795Z,5.76
2023-02-23T23:58:14.092Z,5.84
